createdAt,value
2023-11-12T00:00:04.422Z,10.88
2023-11-12T00:02:31.399Z,7.63
2023-11-12T00:04:58.236Z,8.93
2023-11-12T00:07:24.998Z,10.63
2023-11-12T00:09:51.887Z,8.35
2023-11-12T00:12:20.568Z,7.63
2023-11-12T00:14:47.581Z,10.40
2023-11-12T00:17:15.038Z,8.15
2023-11-12T00:19:42.177Z,6.55
2023-11-12T00:22:10.525Z,10.27
2023-11-12T00:24:37.324Z,10.48
2023-11-12T00:27:04.133Z,7.57
2023-11-12T00:29:31.025Z,8.38
2023-11-12T00:31:58.287Z,11.88
2023-11-12T00:34:25.066Z,7.22
2023-11-12T00:36:52.331Z,11.73
2023-11-12T00:39:19.177Z,10.30
2023-11-12T00:41:45.945Z,6.85
2023-11-12T00:44:12.861Z,10.25
2023-11-12T00:46:41.897Z,13.85
2023-11-12T00:49:09.122Z,12.15
2023-11-12T00:51:36.968Z,8.87
2023-11-12T00:54:03.991Z,10.15
2023-11-12T00:56:31.133Z,10.63
2023-11-12T00:58:58.006Z,9.07
2023-11-12T01:01:25.067Z,7.88
2023-11-12T01:03:52.002Z,11.23
2023-11-12T01:06:18.845Z,9.65
2023-11-12T01:08:46.968Z,10.02
2023-11-12T01:11:14.521Z,11.70
2023-11-12T01:13:41.565Z,8.90
2023-11-12T01:16:10.134Z,9.10
2023-11-12T01:18:41.412Z,8.52
2023-11-12T01:21:08.418Z,9.43
2023-11-12T01:23:35.531Z,11.73
2023-11-12T01:26:02.317Z,9.05
2023-11-12T01:28:33.759Z,10.50
2023-11-12T01:31:01.545Z,10.93
2023-11-12T01:33:29.183Z,10.85
2023-11-12T01:35:56.714Z,12.82
2023-11-12T01:38:23.484Z,8.63
2023-11-12T01:40:50.334Z,12.27
2023-11-12T01:43:17.626Z,10.55
2023-11-12T01:45:44.782Z,12.45
2023-11-12T01:48:15.257Z,10.80
2023-11-12T01:50:43.904Z,14.43
2023-11-12T01:53:14.400Z,11.03
2023-11-12T01:55:42.003Z,10.55
2023-11-12T01:58:10.780Z,9.05
2023-11-12T02:00:41.099Z,14.07
2023-11-12T02:03:10.755Z,9.77
2023-11-12T02:05:37.663Z,8.77
2023-11-12T02:08:06.284Z,13.38
2023-11-12T02:10:37.184Z,8.38
2023-11-12T02:13:07.951Z,9.73
2023-11-12T02:15:35.897Z,14.25
2023-11-12T02:18:03.036Z,12.67
2023-11-12T02:20:29.856Z,10.73
2023-11-12T02:22:56.886Z,12.43
2023-11-12T02:25:23.830Z,10.02
2023-11-12T02:27:50.741Z,12.40
2023-11-12T02:30:20.174Z,11.50
2023-11-12T02:32:48.365Z,12.77
2023-11-12T02:35:15.605Z,12.55
2023-11-12T02:37:42.618Z,9.77
2023-11-12T02:40:10.028Z,10.85
2023-11-12T02:42:38.374Z,11.10
2023-11-12T02:45:06.584Z,15.38
2023-11-12T02:47:33.396Z,14.98
2023-11-12T02:50:05.136Z,14.35
2023-11-12T02:52:32.512Z,11.50
2023-11-12T02:55:00.023Z,15.07
2023-11-12T02:57:28.398Z,11.00
2023-11-12T02:59:56.672Z,11.30
2023-11-12T03:02:23.524Z,12.25
2023-11-12T03:04:52.113Z,10.68
2023-11-12T03:07:19.951Z,12.13
2023-11-12T03:09:48.166Z,15.80
2023-11-12T03:12:15.500Z,16.27
2023-11-12T03:14:43.381Z,9.45
2023-11-12T03:17:10.151Z,10.23
2023-11-12T03:19:38.733Z,15.57
2023-11-12T03:22:06.621Z,11.90
2023-11-12T03:24:35.858Z,14.00
2023-11-12T03:27:02.605Z,10.48
2023-11-12T03:29:29.560Z,9.05
2023-11-12T03:31:56.319Z,9.73
2023-11-12T03:34:25.981Z,10.30
2023-11-12T03:36:53.189Z,10.02
2023-11-12T03:39:20.074Z,13.13
2023-11-12T03:41:47.142Z,9.30
2023-11-12T03:44:13.900Z,11.77
2023-11-12T03:46:40.931Z,9.85
2023-11-12T03:49:08.552Z,13.43
2023-11-12T03:51:35.487Z,18.95
2023-11-12T03:54:03.313Z,11.67
2023-11-12T03:56:30.833Z,13.80
2023-11-12T03:58:58.334Z,12.50
2023-11-12T04:01:25.988Z,13.10
2023-11-12T04:03:53.475Z,9.35
2023-11-12T04:06:21.223Z,8.40
2023-11-12T04:08:48.114Z,9.98
2023-11-12T04:11:14.986Z,9.88
2023-11-12T04:13:41.809Z,12.93
2023-11-12T04:16:09.918Z,13.00
2023-11-12T04:18:37.670Z,12.83
2023-11-12T04:21:08.060Z,12.55
2023-11-12T04:23:34.872Z,9.70
2023-11-12T04:26:02.837Z,9.60
2023-11-12T04:28:30.286Z,11.82
2023-11-12T04:30:58.266Z,11.63
2023-11-12T04:33:25.230Z,12.48
2023-11-12T04:35:53.556Z,11.95
2023-11-12T04:38:21.590Z,12.40
2023-11-12T04:40:51.284Z,12.05
2023-11-12T04:43:18.064Z,12.00
2023-11-12T04:45:45.438Z,15.00
2023-11-12T04:48:12.812Z,11.68
2023-11-12T04:50:39.901Z,11.57
2023-11-12T04:53:07.368Z,8.85
2023-11-12T04:55:35.166Z,9.47
2023-11-12T04:58:08.495Z,10.60
2023-11-12T05:00:35.346Z,8.38
2023-11-12T05:03:05.700Z,9.48
2023-11-12T05:05:33.267Z,9.43
2023-11-12T05:08:00.255Z,15.83
2023-11-12T05:10:44.185Z,15.18
2023-11-12T05:13:13.498Z,9.85
2023-11-12T05:15:40.346Z,18.75
2023-11-12T05:18:07.934Z,11.23
2023-11-12T05:20:35.142Z,8.47
2023-11-12T05:23:02.759Z,12.20
2023-11-12T05:25:30.654Z,11.52
2023-11-12T05:27:57.431Z,11.40
2023-11-12T05:30:24.467Z,14.60
2023-11-12T05:32:52.205Z,12.20
2023-11-12T05:35:19.945Z,11.15
2023-11-12T05:37:48.746Z,10.88
2023-11-12T05:40:16.038Z,11.95
2023-11-12T05:42:43.584Z,12.00
2023-11-12T05:45:10.655Z,15.80
2023-11-12T05:47:37.634Z,10.90
2023-11-12T05:50:05.013Z,14.38
2023-11-12T05:52:31.864Z,13.00
2023-11-12T05:54:58.785Z,11.83
2023-11-12T05:57:25.587Z,11.52
2023-11-12T05:59:52.362Z,13.05
2023-11-12T06:02:19.913Z,13.80
2023-11-12T06:04:46.626Z,11.68
2023-11-12T06:07:13.472Z,14.93
2023-11-12T06:09:40.344Z,13.35
2023-11-12T06:12:08.984Z,11.07
2023-11-12T06:14:37.575Z,11.93
2023-11-12T06:17:05.555Z,14.18
2023-11-12T06:19:32.396Z,12.93
2023-11-12T06:22:01.211Z,12.35
2023-11-12T06:24:28.178Z,10.65
2023-11-12T06:26:54.987Z,12.88
2023-11-12T06:29:21.830Z,9.93
2023-11-12T06:31:48.559Z,11.40
2023-11-12T06:34:15.349Z,13.38
2023-11-12T06:36:42.328Z,14.65
2023-11-12T06:39:09.081Z,21.85
2023-11-12T06:41:35.829Z,14.43
2023-11-12T06:44:02.717Z,19.47
2023-11-12T06:46:29.567Z,15.90
2023-11-12T06:48:56.312Z,17.85
2023-11-12T06:51:27.488Z,16.88
2023-11-12T06:53:54.197Z,13.32
2023-11-12T06:56:21.772Z,15.43
2023-11-12T06:58:49.536Z,15.30
2023-11-12T07:01:16.337Z,16.63
2023-11-12T07:03:43.729Z,14.25
2023-11-12T07:06:10.573Z,15.18
2023-11-12T07:08:37.301Z,13.63
2023-11-12T07:11:05.003Z,15.27
2023-11-12T07:13:31.747Z,15.40
2023-11-12T07:15:58.696Z,15.23
2023-11-12T07:18:25.622Z,18.70
2023-11-12T07:20:52.521Z,13.87
2023-11-12T07:23:19.410Z,13.63
2023-11-12T07:25:46.592Z,17.23
2023-11-12T07:28:13.377Z,19.70
2023-11-12T07:30:40.226Z,15.68
2023-11-12T07:33:07.370Z,15.63
2023-11-12T07:35:34.551Z,15.35
2023-11-12T07:38:02.116Z,15.05
2023-11-12T07:40:29.024Z,15.20
2023-11-12T07:42:57.759Z,16.42
2023-11-12T07:45:31.575Z,18.43
2023-11-12T07:48:01.951Z,15.82
2023-11-12T07:50:29.612Z,20.88
2023-11-12T07:52:56.495Z,13.82
2023-11-12T07:55:23.933Z,14.60
2023-11-12T07:57:50.702Z,21.70
2023-11-12T08:00:18.035Z,15.60
2023-11-12T08:02:46.808Z,17.70
2023-11-12T08:05:13.862Z,12.25
2023-11-12T08:07:41.580Z,14.63
2023-11-12T08:10:09.681Z,14.93
2023-11-12T08:12:37.845Z,15.13
2023-11-12T08:15:06.471Z,13.30
2023-11-12T08:17:33.647Z,18.83
2023-11-12T08:20:00.489Z,15.52
2023-11-12T08:22:27.910Z,16.33
2023-11-12T08:24:56.003Z,15.27
2023-11-12T08:27:23.948Z,15.13
2023-11-12T08:29:53.946Z,16.77
2023-11-12T08:32:20.702Z,19.50
2023-11-12T08:34:47.531Z,13.67
2023-11-12T08:37:14.533Z,19.85
2023-11-12T08:39:41.980Z,18.70
2023-11-12T08:42:08.932Z,16.38
2023-11-12T08:44:35.740Z,14.77
2023-11-12T08:47:03.112Z,13.33
2023-11-12T08:49:33.276Z,16.55
2023-11-12T08:52:00.515Z,14.10
2023-11-12T08:54:27.383Z,16.85
2023-11-12T08:56:54.543Z,15.98
2023-11-12T08:59:21.856Z,16.60
2023-11-12T09:01:48.624Z,17.33
2023-11-12T09:04:15.486Z,15.07
2023-11-12T09:06:42.313Z,15.63
2023-11-12T09:09:10.196Z,13.65
2023-11-12T09:11:37.762Z,17.47
2023-11-12T09:14:06.879Z,19.33
2023-11-12T09:16:34.768Z,13.60
2023-11-12T09:19:01.798Z,14.18
2023-11-12T09:21:32.360Z,17.50
2023-11-12T09:23:59.778Z,13.70
2023-11-12T09:26:26.615Z,14.45
2023-11-12T09:28:53.369Z,13.48
2023-11-12T09:31:20.800Z,16.40
2023-11-12T09:33:48.286Z,16.90
2023-11-12T09:36:15.889Z,15.20
2023-11-12T09:38:42.956Z,16.20
2023-11-12T09:41:13.623Z,16.45
2023-11-12T09:43:40.614Z,16.52
2023-11-12T09:46:10.687Z,20.90
2023-11-12T09:48:43.520Z,20.93
2023-11-12T09:51:13.448Z,17.92
2023-11-12T09:53:42.241Z,16.02
2023-11-12T09:56:10.522Z,17.13
2023-11-12T09:58:38.989Z,17.88
2023-11-12T10:01:08.992Z,20.77
2023-11-12T10:03:37.000Z,23.73
2023-11-12T10:06:07.499Z,19.17
2023-11-12T10:08:37.405Z,18.17
2023-11-12T10:11:24.631Z,18.63
2023-11-12T10:13:52.916Z,16.33
2023-11-12T10:16:30.250Z,18.00
2023-11-12T10:19:17.410Z,19.88
2023-11-12T10:21:58.128Z,20.33
2023-11-12T10:24:29.727Z,23.58
2023-11-12T10:27:08.977Z,28.67
2023-11-12T10:29:35.762Z,24.50
2023-11-12T10:32:02.621Z,27.40
2023-11-12T10:34:29.565Z,30.33
2023-11-12T10:37:02.054Z,34.33
2023-11-12T10:39:36.839Z,32.50
2023-11-12T10:42:04.046Z,32.20
2023-11-12T10:44:34.684Z,32.58
2023-11-12T10:47:05.672Z,30.92
2023-11-12T10:49:35.109Z,33.33
2023-11-12T10:52:04.378Z,28.50
2023-11-12T10:54:33.685Z,32.33
2023-11-12T10:57:01.786Z,27.30
2023-11-12T10:59:32.268Z,33.72
2023-11-12T11:02:00.558Z,33.15
2023-11-12T11:04:30.298Z,28.70
2023-11-12T11:06:57.180Z,31.67
2023-11-12T11:09:24.177Z,27.67
2023-11-12T11:11:51.424Z,28.02
2023-11-12T11:14:30.492Z,30.75
2023-11-12T11:16:58.803Z,28.67
2023-11-12T11:19:55.135Z,26.88
2023-11-12T11:22:35.218Z,23.00
2023-11-12T11:25:26.436Z,23.70
2023-11-12T11:28:18.581Z,24.25
2023-11-12T11:31:11.117Z,20.03
2023-11-12T11:33:48.914Z,20.48
2023-11-12T11:36:21.765Z,18.13
2023-11-12T11:39:03.974Z,20.30
2023-11-12T11:41:37.226Z,18.60
2023-11-12T11:44:42.815Z,18.43
2023-11-12T11:47:16.793Z,19.23
2023-11-12T11:49:46.783Z,16.85
2023-11-12T11:52:27.644Z,19.45
2023-11-12T11:55:03.641Z,16.92
2023-11-12T11:57:31.040Z,16.13
2023-11-12T11:59:59.674Z,17.75
2023-11-12T12:02:26.870Z,15.10
2023-11-12T12:04:58.532Z,14.05
2023-11-12T12:07:27.821Z,17.42
2023-11-12T12:09:59.448Z,13.73
2023-11-12T12:12:27.408Z,13.38
2023-11-12T12:14:55.854Z,12.88
2023-11-12T12:17:23.396Z,13.18
2023-11-12T12:19:56.381Z,12.18
2023-11-12T12:22:30.121Z,16.03
2023-11-12T12:24:59.111Z,12.25
2023-11-12T12:27:26.303Z,13.13
2023-11-12T12:29:54.231Z,10.98
2023-11-12T12:32:21.640Z,14.27
2023-11-12T12:34:59.482Z,10.83
2023-11-12T12:37:28.909Z,13.60
2023-11-12T12:40:12.119Z,12.43
2023-11-12T12:42:39.811Z,11.05
2023-11-12T12:45:16.845Z,12.65
2023-11-12T12:47:45.195Z,11.50
2023-11-12T12:50:34.026Z,9.50
2023-11-12T12:53:19.514Z,10.18
2023-11-12T12:55:47.363Z,10.98
2023-11-12T12:58:15.408Z,10.15
2023-11-12T13:00:46.559Z,9.67
2023-11-12T13:03:36.488Z,9.02
2023-11-12T13:06:09.503Z,9.40
2023-11-12T13:08:36.580Z,9.93
2023-11-12T13:11:04.089Z,9.20
2023-11-12T13:13:31.897Z,11.10
2023-11-12T13:15:58.963Z,10.90
2023-11-12T13:18:26.736Z,8.30
2023-11-12T13:20:53.625Z,10.20
2023-11-12T13:23:20.472Z,11.38
2023-11-12T13:25:52.526Z,10.03
2023-11-12T13:28:19.458Z,10.90
2023-11-12T13:30:48.158Z,10.35
2023-11-12T13:33:15.960Z,11.73
2023-11-12T13:35:43.261Z,10.13
2023-11-12T13:38:11.174Z,10.53
2023-11-12T13:40:41.335Z,9.80
2023-11-12T13:43:08.461Z,12.75
2023-11-12T13:45:39.024Z,12.07
2023-11-12T13:48:07.418Z,12.68
2023-11-12T13:50:36.563Z,20.00
2023-11-12T13:53:10.133Z,15.55
2023-11-12T13:55:38.514Z,15.02
2023-11-12T13:58:07.451Z,16.40
2023-11-12T14:00:34.350Z,10.60
2023-11-12T14:03:02.092Z,14.07
2023-11-12T14:05:29.321Z,14.65
2023-11-12T14:07:57.148Z,16.23
2023-11-12T14:10:24.438Z,16.13
2023-11-12T14:12:51.446Z,11.75
2023-11-12T14:15:19.664Z,15.10
2023-11-12T14:17:47.087Z,13.82
2023-11-12T14:20:23.461Z,17.60
2023-11-12T14:22:52.008Z,13.13
2023-11-12T14:25:22.470Z,15.73
2023-11-12T14:27:50.251Z,17.37
2023-11-12T14:30:19.256Z,13.73
2023-11-12T14:32:46.648Z,15.40
2023-11-12T14:35:13.829Z,16.08
2023-11-12T14:37:40.718Z,11.77
2023-11-12T14:40:11.362Z,17.93
2023-11-12T14:42:39.489Z,17.10
2023-11-12T14:45:14.785Z,17.73
2023-11-12T14:47:48.357Z,15.27
2023-11-12T14:50:17.459Z,15.23
2023-11-12T14:52:44.593Z,18.03
2023-11-12T14:55:22.029Z,15.35
2023-11-12T14:57:54.945Z,15.98
2023-11-12T15:00:28.991Z,15.82
2023-11-12T15:03:01.556Z,17.95
2023-11-12T15:05:31.832Z,16.23
2023-11-12T15:07:58.661Z,15.27
2023-11-12T15:10:25.474Z,17.80
2023-11-12T15:12:52.560Z,16.70
2023-11-12T15:15:20.682Z,18.48
2023-11-12T15:17:48.047Z,17.60
2023-11-12T15:20:14.961Z,18.13
2023-11-12T15:22:43.149Z,16.23
2023-11-12T15:25:12.364Z,18.45
2023-11-12T15:27:39.859Z,15.52
2023-11-12T15:30:07.296Z,18.00
2023-11-12T15:32:34.062Z,15.63
2023-11-12T15:35:00.785Z,16.15
2023-11-12T15:37:28.552Z,12.35
2023-11-12T15:39:56.492Z,16.67
2023-11-12T15:42:24.997Z,14.60
2023-11-12T15:44:51.796Z,14.88
2023-11-12T15:47:20.724Z,15.93
2023-11-12T15:49:47.837Z,15.70
2023-11-12T15:52:14.977Z,16.27
2023-11-12T15:54:48.221Z,17.03
2023-11-12T15:57:16.730Z,16.00
2023-11-12T15:59:43.456Z,18.25
2023-11-12T16:02:10.194Z,17.25
2023-11-12T16:04:37.217Z,19.08
2023-11-12T16:07:04.315Z,23.80
2023-11-12T16:09:31.592Z,20.92
2023-11-12T16:11:59.103Z,18.38
2023-11-12T16:14:25.945Z,16.02
2023-11-12T16:16:52.733Z,19.70
2023-11-12T16:19:19.541Z,16.23
2023-11-12T16:21:49.640Z,16.85
2023-11-12T16:24:17.057Z,19.33
2023-11-12T16:26:44.432Z,17.38
2023-11-12T16:29:11.512Z,18.42
2023-11-12T16:31:38.281Z,24.03
2023-11-12T16:34:05.131Z,24.63
2023-11-12T16:36:31.965Z,21.55
2023-11-12T16:38:58.747Z,25.02
2023-11-12T16:41:25.857Z,23.55
2023-11-12T16:43:53.953Z,26.07
2023-11-12T16:46:20.777Z,28.23
2023-11-12T16:48:47.651Z,23.50
2023-11-12T16:51:15.731Z,26.67
2023-11-12T16:53:43.596Z,21.20
2023-11-12T16:56:11.992Z,23.17
2023-11-12T16:58:41.041Z,24.88
2023-11-12T17:01:08.331Z,22.60
2023-11-12T17:03:35.181Z,26.48
2023-11-12T17:06:02.407Z,23.05
2023-11-12T17:08:30.276Z,25.37
2023-11-12T17:10:57.069Z,27.08
2023-11-12T17:13:23.962Z,24.95
2023-11-12T17:15:50.962Z,26.65
2023-11-12T17:18:17.877Z,25.45
2023-11-12T17:20:44.725Z,27.20
2023-11-12T17:23:11.544Z,26.30
2023-11-12T17:25:38.375Z,28.55
2023-11-12T17:28:05.266Z,27.08
2023-11-12T17:30:34.354Z,25.42
2023-11-12T17:33:01.133Z,31.17
2023-11-12T17:35:28.019Z,25.40
2023-11-12T17:37:55.077Z,28.05
2023-11-12T17:40:21.871Z,30.00
2023-11-12T17:42:49.341Z,31.77
2023-11-12T17:45:16.762Z,35.50
2023-11-12T17:47:43.591Z,30.92
2023-11-12T17:50:11.342Z,34.50
2023-11-12T17:52:39.820Z,30.42
2023-11-12T17:55:07.285Z,26.02
2023-11-12T17:57:35.832Z,27.60
2023-11-12T18:00:02.716Z,28.52
2023-11-12T18:02:40.860Z,23.95
2023-11-12T18:05:08.132Z,23.30
2023-11-12T18:07:35.393Z,22.88
2023-11-12T18:10:03.472Z,24.77
2023-11-12T18:12:30.359Z,21.38
2023-11-12T18:15:00.613Z,26.40
2023-11-12T18:17:27.479Z,24.63
2023-11-12T18:19:55.281Z,26.95
2023-11-12T18:22:26.889Z,24.33
2023-11-12T18:24:53.972Z,21.80
2023-11-12T18:27:21.219Z,21.15
2023-11-12T18:29:48.395Z,26.15
2023-11-12T18:32:15.175Z,25.20
2023-11-12T18:34:48.400Z,21.57
2023-11-12T18:37:15.661Z,25.02
2023-11-12T18:39:42.564Z,25.48
2023-11-12T18:42:09.671Z,27.48
2023-11-12T18:44:36.893Z,28.85
2023-11-12T18:47:06.774Z,28.23
2023-11-12T18:49:33.790Z,24.90
2023-11-12T18:52:04.146Z,24.23
2023-11-12T18:54:31.632Z,21.98
2023-11-12T18:56:58.433Z,25.38
2023-11-12T18:59:25.292Z,25.00
2023-11-12T19:01:52.436Z,23.75
2023-11-12T19:04:19.341Z,25.48
2023-11-12T19:06:49.929Z,27.05
2023-11-12T19:09:17.177Z,22.58
2023-11-12T19:11:43.993Z,24.47
2023-11-12T19:14:11.505Z,27.88
2023-11-12T19:16:39.157Z,26.25
2023-11-12T19:19:07.027Z,24.83
2023-11-12T19:21:37.185Z,24.67
2023-11-12T19:24:07.717Z,30.53
2023-11-12T19:26:34.469Z,24.42
2023-11-12T19:29:03.719Z,29.42
2023-11-12T19:31:33.705Z,23.15
2023-11-12T19:34:01.210Z,22.52
2023-11-12T19:36:27.984Z,25.63
2023-11-12T19:38:54.794Z,26.30
2023-11-12T19:41:23.121Z,24.65
2023-11-12T19:43:49.921Z,30.10
2023-11-12T19:46:16.899Z,28.52
2023-11-12T19:48:43.720Z,27.90
2023-11-12T19:51:10.530Z,28.45
2023-11-12T19:53:41.248Z,22.20
2023-11-12T19:56:08.240Z,28.40
2023-11-12T19:58:35.074Z,23.48
2023-11-12T20:01:02.007Z,25.10
2023-11-12T20:03:28.894Z,26.92
2023-11-12T20:05:55.650Z,25.65
2023-11-12T20:08:23.386Z,26.90
2023-11-12T20:10:50.496Z,31.37
2023-11-12T20:13:17.449Z,29.08
2023-11-12T20:15:44.409Z,26.38
2023-11-12T20:18:11.258Z,22.58
2023-11-12T20:20:43.063Z,23.50
2023-11-12T20:23:11.504Z,25.20
2023-11-12T20:25:38.629Z,26.55
2023-11-12T20:28:12.147Z,22.60
2023-11-12T20:30:40.991Z,23.10
2023-11-12T20:33:07.956Z,20.95
2023-11-12T20:35:34.782Z,20.20
2023-11-12T20:38:01.555Z,21.55
2023-11-12T20:40:28.308Z,21.67
2023-11-12T20:42:56.811Z,18.50
2023-11-12T20:45:23.734Z,25.90
2023-11-12T20:47:53.677Z,21.30
2023-11-12T20:50:21.104Z,20.95
2023-11-12T20:52:47.971Z,30.15
2023-11-12T20:55:17.891Z,24.08
2023-11-12T20:57:48.127Z,25.77
2023-11-12T21:00:19.870Z,25.63
2023-11-12T21:02:49.012Z,22.35
2023-11-12T21:05:17.289Z,21.77
2023-11-12T21:07:44.013Z,22.10
2023-11-12T21:10:10.924Z,26.30
2023-11-12T21:12:37.812Z,37.17
2023-11-12T21:15:07.284Z,37.83
2023-11-12T21:17:34.107Z,41.92
2023-11-12T21:20:01.365Z,31.97
2023-11-12T21:22:28.537Z,33.33
2023-11-12T21:24:55.514Z,30.33
2023-11-12T21:27:22.538Z,40.92
2023-11-12T21:29:49.391Z,63.83
2023-11-12T21:32:16.205Z,117.37
2023-11-12T21:34:42.991Z,48.40
2023-11-12T21:37:09.750Z,194.43
2023-11-12T21:39:36.880Z,184.45
2023-11-12T21:42:08.125Z,248.82
2023-11-12T21:44:36.361Z,247.33
2023-11-12T21:47:04.044Z,83.93
2023-11-12T21:49:31.076Z,69.47
2023-11-12T21:51:59.105Z,115.18
2023-11-12T21:54:26.544Z,250.80
2023-11-12T21:56:54.561Z,120.20
2023-11-12T21:59:22.292Z,87.00
2023-11-12T22:01:50.575Z,136.70
2023-11-12T22:04:22.474Z,99.97
2023-11-12T22:06:49.561Z,82.20
2023-11-12T22:09:16.371Z,35.57
2023-11-12T22:11:47.739Z,42.20
2023-11-12T22:14:14.798Z,28.88
2023-11-12T22:16:44.971Z,26.35
2023-11-12T22:19:13.052Z,25.37
2023-11-12T22:21:41.228Z,28.23
2023-11-12T22:24:08.695Z,26.33
2023-11-12T22:26:37.330Z,58.90
2023-11-12T22:29:04.129Z,22.92
2023-11-12T22:31:31.229Z,23.77
2023-11-12T22:33:58.187Z,22.02
2023-11-12T22:36:25.214Z,22.30
2023-11-12T22:38:52.977Z,30.10
2023-11-12T22:41:19.717Z,28.08
2023-11-12T22:43:46.716Z,25.90
2023-11-12T22:46:13.783Z,22.25
2023-11-12T22:48:41.973Z,20.75
2023-11-12T22:51:10.169Z,18.77
2023-11-12T22:53:38.272Z,16.95
2023-11-12T22:56:05.415Z,18.00
2023-11-12T22:58:32.230Z,18.52
2023-11-12T23:01:05.174Z,17.52
2023-11-12T23:03:35.233Z,15.02
2023-11-12T23:06:02.172Z,16.23
2023-11-12T23:08:29.267Z,14.60
2023-11-12T23:10:56.717Z,15.55
2023-11-12T23:13:23.675Z,14.85
2023-11-12T23:15:51.230Z,16.08
2023-11-12T23:18:20.217Z,17.07
2023-11-12T23:20:52.464Z,25.83
2023-11-12T23:23:26.096Z,18.67
2023-11-12T23:25:53.782Z,17.08
2023-11-12T23:28:20.715Z,19.80
2023-11-12T23:30:47.639Z,18.02
2023-11-12T23:33:15.115Z,18.10
2023-11-12T23:35:41.903Z,22.08
2023-11-12T23:38:08.687Z,21.35
2023-11-12T23:40:36.065Z,18.60
2023-11-12T23:43:02.858Z,18.60
2023-11-12T23:45:29.575Z,21.83
2023-11-12T23:47:56.452Z,21.08
2023-11-12T23:50:25.754Z,18.60
2023-11-12T23:52:52.731Z,22.10
2023-11-12T23:55:19.561Z,19.15
2023-11-12T23:57:47.130Z,19.15
